createdAt,value
2022-08-17T00:01:21.427Z,17.93
2022-08-17T00:03:52.570Z,17.91
2022-08-17T00:06:26.535Z,17.93
2022-08-17T00:08:57.810Z,17.93
2022-08-17T00:11:28.817Z,17.83
2022-08-17T00:14:00.274Z,17.90
2022-08-17T00:16:55.756Z,17.92
2022-08-17T00:19:08.384Z,18.06
2022-08-17T00:22:28.615Z,18.02
2022-08-17T00:24:07.384Z,17.98
2022-08-17T00:26:44.808Z,17.97
2022-08-17T00:29:07.693Z,17.97
2022-08-17T00:31:36.688Z,17.91
2022-08-17T00:34:09.317Z,17.89
2022-08-17T00:36:38.431Z,17.77
2022-08-17T00:39:07.169Z,17.81
2022-08-17T00:41:35.946Z,17.77
2022-08-17T00:44:07.001Z,17.74
2022-08-17T00:46:38.213Z,17.71
2022-08-17T00:49:07.716Z,17.70
2022-08-17T00:51:37.960Z,17.73
2022-08-17T00:54:08.452Z,17.72
2022-08-17T00:56:44.822Z,17.67
2022-08-17T00:59:14.944Z,17.70
2022-08-17T01:01:43.751Z,17.59
2022-08-17T01:04:13.965Z,17.57
2022-08-17T01:06:43.670Z,17.55
2022-08-17T01:09:12.411Z,17.54
2022-08-17T01:11:41.746Z,17.51
2022-08-17T01:14:10.937Z,17.47
2022-08-17T01:16:40.153Z,17.45
2022-08-17T01:19:13.101Z,17.43
2022-08-17T01:21:46.279Z,17.44
2022-08-17T01:24:15.289Z,17.44
2022-08-17T01:26:44.909Z,17.44
2022-08-17T01:29:13.644Z,17.38
2022-08-17T01:31:45.049Z,17.36
2022-08-17T01:34:14.562Z,17.34
2022-08-17T01:36:46.070Z,17.33
2022-08-17T01:39:16.317Z,17.31
2022-08-17T01:41:46.307Z,17.27
2022-08-17T01:44:17.716Z,17.29
2022-08-17T01:46:46.435Z,17.28
2022-08-17T01:49:16.202Z,17.28
2022-08-17T01:51:44.999Z,17.23
2022-08-17T01:54:15.243Z,17.21
2022-08-17T01:56:47.532Z,17.16
2022-08-17T01:59:16.784Z,17.15
2022-08-17T02:01:46.232Z,17.15
2022-08-17T02:04:16.775Z,17.11
2022-08-17T02:06:53.451Z,17.11
2022-08-17T02:09:16.943Z,17.14
2022-08-17T02:11:46.410Z,17.17
2022-08-17T02:14:16.533Z,17.18
2022-08-17T02:16:45.380Z,17.18
2022-08-17T02:19:16.034Z,17.13
2022-08-17T02:21:46.413Z,17.13
2022-08-17T02:24:59.731Z,17.12
2022-08-17T02:26:56.737Z,17.01
2022-08-17T02:29:26.633Z,17.02
2022-08-17T02:31:56.235Z,16.99
2022-08-17T02:34:25.745Z,16.97
2022-08-17T02:36:55.542Z,16.94
2022-08-17T02:39:24.357Z,16.92
2022-08-17T02:41:55.780Z,16.89
2022-08-17T02:44:39.481Z,16.85
2022-08-17T02:46:55.415Z,16.82
2022-08-17T02:49:25.216Z,16.80
2022-08-17T02:51:53.979Z,16.81
2022-08-17T02:54:41.291Z,16.76
2022-08-17T02:56:53.186Z,16.70
2022-08-17T02:59:23.562Z,16.68
2022-08-17T03:01:53.811Z,16.63
2022-08-17T03:04:23.170Z,16.60
2022-08-17T03:06:51.910Z,16.57
2022-08-17T03:09:21.758Z,16.57
2022-08-17T03:11:51.932Z,16.58
2022-08-17T03:14:26.202Z,16.54
2022-08-17T03:16:52.689Z,16.57
2022-08-17T03:19:21.429Z,16.58
2022-08-17T03:21:55.034Z,16.56
2022-08-17T03:24:20.610Z,16.53
2022-08-17T03:26:50.986Z,16.53
2022-08-17T03:29:19.787Z,16.50
2022-08-17T03:31:49.403Z,16.49
2022-08-17T03:34:19.125Z,16.52
2022-08-17T03:36:47.870Z,16.50
2022-08-17T03:39:16.678Z,16.49
2022-08-17T03:41:45.444Z,16.45
2022-08-17T03:44:16.124Z,16.45
2022-08-17T03:47:03.989Z,16.42
2022-08-17T03:49:50.576Z,16.39
2022-08-17T03:52:37.043Z,16.39
2022-08-17T03:55:29.445Z,16.34
2022-08-17T03:57:54.318Z,16.37
2022-08-17T04:00:23.045Z,16.32
2022-08-17T04:02:52.042Z,16.33
2022-08-17T04:05:21.406Z,16.35
2022-08-17T04:07:51.832Z,16.37
2022-08-17T04:10:24.695Z,16.41
2022-08-17T04:12:53.001Z,16.54
2022-08-17T04:15:22.473Z,16.52
2022-08-17T04:17:51.344Z,16.52
2022-08-17T04:20:21.941Z,16.54
2022-08-17T04:22:58.375Z,16.57
2022-08-17T04:25:27.445Z,16.62
2022-08-17T04:27:56.383Z,16.65
2022-08-17T04:30:25.651Z,16.70
2022-08-17T04:33:06.170Z,16.74
2022-08-17T04:35:33.437Z,16.82
2022-08-17T04:38:02.172Z,16.87
2022-08-17T04:40:49.011Z,16.95
2022-08-17T04:43:19.244Z,17.00
2022-08-17T04:45:55.566Z,17.06
2022-08-17T04:48:20.927Z,17.09
2022-08-17T04:50:50.501Z,17.18
2022-08-17T04:53:20.033Z,17.42
2022-08-17T04:55:49.401Z,17.81
2022-08-17T04:58:18.157Z,18.31
2022-08-17T05:00:48.148Z,18.50
2022-08-17T05:03:17.084Z,18.75
2022-08-17T05:05:47.443Z,18.90
2022-08-17T05:08:18.084Z,19.00
2022-08-17T05:10:47.373Z,19.34
2022-08-17T05:13:17.613Z,19.67
2022-08-17T05:15:47.719Z,19.95
2022-08-17T05:18:17.641Z,20.26
2022-08-17T05:20:48.750Z,20.26
2022-08-17T05:23:18.475Z,20.56
2022-08-17T05:25:48.674Z,20.87
2022-08-17T05:28:23.502Z,21.06
2022-08-17T05:30:52.000Z,21.15
2022-08-17T05:33:22.953Z,21.13
2022-08-17T05:35:53.263Z,21.31
2022-08-17T05:38:23.782Z,21.48
2022-08-17T05:40:52.916Z,21.74
2022-08-17T05:43:26.192Z,21.87
2022-08-17T05:46:02.357Z,22.01
2022-08-17T05:48:39.592Z,21.79
2022-08-17T05:51:10.683Z,22.23
2022-08-17T05:53:43.874Z,22.63
2022-08-17T05:56:29.890Z,22.68
2022-08-17T05:58:54.275Z,22.80
2022-08-17T06:01:41.047Z,23.26
2022-08-17T06:04:17.200Z,23.62
2022-08-17T06:06:47.462Z,23.52
2022-08-17T06:09:28.903Z,23.95
2022-08-17T06:11:58.933Z,24.32
2022-08-17T06:14:33.236Z,24.18
2022-08-17T06:17:03.494Z,24.42
2022-08-17T06:19:53.170Z,24.03
2022-08-17T06:22:23.494Z,24.38
2022-08-17T06:24:57.097Z,24.05
2022-08-17T06:27:45.672Z,24.08
2022-08-17T06:30:27.729Z,24.14
2022-08-17T06:33:00.495Z,23.99
2022-08-17T06:35:36.481Z,24.30
2022-08-17T06:38:07.289Z,24.25
2022-08-17T06:40:55.229Z,24.60
2022-08-17T06:43:46.153Z,24.82
2022-08-17T06:46:19.826Z,24.80
2022-08-17T06:48:50.085Z,24.89
2022-08-17T06:51:29.312Z,24.89
2022-08-17T06:54:02.578Z,25.00
2022-08-17T06:56:54.472Z,25.02
2022-08-17T06:59:05.318Z,25.13
2022-08-17T07:01:35.703Z,25.09
2022-08-17T07:04:11.832Z,25.16
2022-08-17T07:06:44.848Z,25.15
2022-08-17T07:09:33.282Z,25.30
2022-08-17T07:12:06.705Z,25.31
2022-08-17T07:14:37.891Z,25.25
2022-08-17T07:17:11.503Z,25.42
2022-08-17T07:19:41.506Z,25.58
2022-08-17T07:22:20.918Z,25.47
2022-08-17T07:24:58.332Z,25.68
2022-08-17T07:27:28.650Z,25.62
2022-08-17T07:30:10.319Z,25.75
2022-08-17T07:32:37.900Z,25.88
2022-08-17T07:35:15.361Z,25.77
2022-08-17T07:37:45.827Z,25.85
2022-08-17T07:40:19.121Z,26.08
2022-08-17T07:43:07.884Z,26.07
2022-08-17T07:45:58.051Z,26.40
2022-08-17T07:48:27.582Z,26.42
2022-08-17T07:50:58.486Z,26.47
2022-08-17T07:53:27.909Z,26.38
2022-08-17T07:55:56.733Z,26.47
2022-08-17T07:58:26.565Z,26.88
2022-08-17T08:01:04.174Z,27.09
2022-08-17T08:03:34.172Z,27.19
2022-08-17T08:06:04.084Z,27.29
2022-08-17T08:08:34.425Z,27.69
2022-08-17T08:11:04.660Z,27.56
2022-08-17T08:13:34.607Z,28.10
2022-08-17T08:16:14.460Z,28.34
2022-08-17T08:18:54.369Z,28.47
2022-08-17T08:21:21.287Z,28.65
2022-08-17T08:24:03.555Z,28.74
2022-08-17T08:26:36.926Z,28.57
2022-08-17T08:29:17.824Z,29.26
2022-08-17T08:31:54.524Z,29.20
2022-08-17T08:35:00.591Z,29.15
2022-08-17T08:37:14.596Z,29.52
2022-08-17T08:39:39.714Z,29.36
2022-08-17T08:42:11.518Z,29.99
2022-08-17T08:45:00.064Z,29.97
2022-08-17T08:47:18.192Z,30.02
2022-08-17T08:50:06.683Z,30.57
2022-08-17T08:52:27.060Z,30.86
2022-08-17T08:54:57.301Z,31.07
2022-08-17T08:57:33.963Z,31.22
2022-08-17T09:00:03.154Z,31.28
2022-08-17T09:02:36.101Z,31.47
2022-08-17T09:05:14.183Z,31.11
2022-08-17T09:07:42.175Z,31.15
2022-08-17T09:10:15.124Z,31.43
2022-08-17T09:12:51.084Z,31.80
2022-08-17T09:15:31.766Z,32.07
2022-08-17T09:18:59.318Z,31.87
2022-08-17T09:20:33.894Z,31.79
2022-08-17T09:23:09.107Z,31.69
2022-08-17T09:25:41.490Z,31.55
2022-08-17T09:28:12.608Z,32.24
2022-08-17T09:30:48.828Z,32.36
2022-08-17T09:33:19.231Z,32.00
2022-08-17T09:35:49.486Z,32.22
2022-08-17T09:38:19.727Z,32.48
2022-08-17T09:40:55.972Z,31.71
2022-08-17T09:43:26.227Z,32.36
2022-08-17T09:45:57.432Z,31.27
2022-08-17T09:48:33.542Z,31.98
2022-08-17T09:51:06.604Z,31.84
2022-08-17T09:53:35.737Z,32.55
2022-08-17T09:56:09.057Z,32.85
2022-08-17T09:58:48.576Z,32.98
2022-08-17T10:01:31.728Z,33.20
2022-08-17T10:04:04.786Z,33.17
2022-08-17T10:06:36.070Z,33.11
2022-08-17T10:09:10.086Z,33.38
2022-08-17T10:12:01.235Z,33.52
2022-08-17T10:14:44.198Z,33.51
2022-08-17T10:17:27.261Z,33.51
2022-08-17T10:20:04.068Z,32.46
2022-08-17T10:22:54.947Z,33.13
2022-08-17T10:25:56.737Z,32.61
2022-08-17T10:28:19.769Z,33.23
2022-08-17T10:30:45.048Z,33.63
2022-08-17T10:33:15.472Z,33.72
2022-08-17T10:35:52.865Z,33.75
2022-08-17T10:38:33.530Z,33.66
2022-08-17T10:41:07.149Z,33.12
2022-08-17T10:44:35.407Z,34.11
2022-08-17T10:46:30.602Z,33.96
2022-08-17T10:48:50.032Z,33.64
2022-08-17T10:51:38.618Z,34.14
2022-08-17T10:54:08.054Z,34.04
2022-08-17T10:56:41.281Z,33.63
2022-08-17T10:59:10.034Z,34.24
2022-08-17T11:01:42.135Z,34.35
2022-08-17T11:04:12.396Z,34.10
2022-08-17T11:07:03.291Z,32.76
2022-08-17T11:09:33.875Z,32.31
2022-08-17T11:12:05.783Z,33.44
2022-08-17T11:14:48.002Z,32.80
2022-08-17T11:17:24.282Z,32.38
2022-08-17T11:20:00.227Z,32.21
2022-08-17T11:22:34.130Z,32.07
2022-08-17T11:25:16.369Z,32.63
2022-08-17T11:27:48.533Z,33.18
2022-08-17T11:30:18.779Z,33.41
2022-08-17T11:32:51.989Z,32.89
2022-08-17T11:35:21.807Z,32.75
2022-08-17T11:38:14.069Z,32.57
2022-08-17T11:40:57.628Z,32.77
2022-08-17T11:43:30.802Z,32.40
2022-08-17T11:46:10.062Z,32.33
2022-08-17T11:49:10.394Z,31.75
2022-08-17T11:51:56.482Z,31.87
2022-08-17T11:54:36.297Z,31.76
2022-08-17T11:57:23.158Z,31.51
2022-08-17T11:59:55.814Z,31.69
2022-08-17T12:02:35.136Z,32.26
2022-08-17T12:05:14.521Z,32.99
2022-08-17T12:07:52.030Z,32.96
2022-08-17T12:10:22.542Z,33.42
2022-08-17T12:12:52.790Z,33.34
2022-08-17T12:15:24.606Z,33.57
2022-08-17T12:17:55.208Z,33.65
2022-08-17T12:20:34.692Z,33.68
2022-08-17T12:23:05.395Z,33.46
2022-08-17T12:25:35.977Z,33.71
2022-08-17T12:28:07.892Z,33.71
2022-08-17T12:30:36.974Z,33.76
2022-08-17T12:33:07.203Z,33.13
2022-08-17T12:35:39.034Z,33.41
2022-08-17T12:38:26.894Z,33.45
2022-08-17T12:40:40.293Z,33.61
2022-08-17T12:43:11.392Z,33.35
2022-08-17T12:45:40.604Z,34.10
2022-08-17T12:48:11.088Z,34.03
2022-08-17T12:50:41.862Z,33.25
2022-08-17T12:53:15.821Z,33.74
2022-08-17T12:55:45.041Z,33.87
2022-08-17T12:58:15.313Z,33.52
2022-08-17T13:00:47.545Z,33.85
2022-08-17T13:03:19.247Z,33.60
2022-08-17T13:05:55.481Z,34.16
2022-08-17T13:08:26.999Z,33.59
2022-08-17T13:10:58.303Z,33.99
2022-08-17T13:13:28.808Z,34.11
2022-08-17T13:16:02.009Z,34.16
2022-08-17T13:18:35.316Z,33.67
2022-08-17T13:21:04.138Z,33.82
2022-08-17T13:23:33.531Z,34.47
2022-08-17T13:26:06.519Z,33.95
2022-08-17T13:28:37.402Z,34.48
2022-08-17T13:31:16.937Z,34.20
2022-08-17T13:33:46.341Z,33.72
2022-08-17T13:36:19.485Z,33.89
2022-08-17T13:38:50.729Z,34.02
2022-08-17T13:41:33.668Z,33.16
2022-08-17T13:44:04.364Z,33.11
2022-08-17T13:46:33.847Z,33.16
2022-08-17T13:49:04.548Z,33.59
2022-08-17T13:51:46.563Z,33.73
2022-08-17T13:54:19.896Z,33.54
2022-08-17T13:56:57.365Z,33.51
2022-08-17T13:59:53.856Z,33.57
2022-08-17T14:02:02.680Z,33.75
2022-08-17T14:04:32.379Z,33.34
2022-08-17T14:07:05.655Z,33.76
2022-08-17T14:09:37.403Z,33.33
2022-08-17T14:12:08.600Z,32.72
2022-08-17T14:14:37.999Z,33.32
2022-08-17T14:17:07.963Z,33.07
2022-08-17T14:19:37.086Z,33.42
2022-08-17T14:22:12.175Z,33.59
2022-08-17T14:24:44.816Z,33.69
2022-08-17T14:27:13.551Z,34.03
2022-08-17T14:29:42.527Z,33.63
2022-08-17T14:32:18.598Z,33.98
2022-08-17T14:34:49.631Z,34.10
2022-08-17T14:37:19.399Z,34.15
2022-08-17T14:39:49.633Z,33.10
2022-08-17T14:42:18.467Z,33.44
2022-08-17T14:44:47.223Z,33.36
2022-08-17T14:47:16.196Z,33.20
2022-08-17T14:49:47.681Z,33.11
2022-08-17T14:52:19.496Z,32.67
2022-08-17T14:54:51.354Z,32.72
2022-08-17T14:57:33.294Z,32.60
2022-08-17T14:59:55.053Z,32.21
2022-08-17T15:02:30.234Z,32.60
2022-08-17T15:05:01.966Z,32.80
2022-08-17T15:07:31.492Z,32.72
2022-08-17T15:10:02.118Z,32.72
2022-08-17T15:12:33.813Z,32.93
2022-08-17T15:15:04.993Z,33.04
2022-08-17T15:17:45.149Z,32.60
2022-08-17T15:20:11.430Z,32.97
2022-08-17T15:22:40.128Z,32.73
2022-08-17T15:25:10.601Z,32.87
2022-08-17T15:27:40.303Z,32.15
2022-08-17T15:30:10.063Z,32.11
2022-08-17T15:32:40.903Z,32.31
2022-08-17T15:35:13.879Z,32.33
2022-08-17T15:37:43.633Z,32.21
2022-08-17T15:40:13.005Z,32.11
2022-08-17T15:42:41.771Z,32.13
2022-08-17T15:45:12.281Z,32.18
2022-08-17T15:47:42.687Z,32.15
2022-08-17T15:50:11.817Z,32.15
2022-08-17T15:52:45.016Z,32.07
2022-08-17T15:55:15.839Z,32.02
2022-08-17T15:57:45.348Z,32.07
2022-08-17T16:00:14.150Z,31.92
2022-08-17T16:03:46.978Z,31.39
2022-08-17T16:05:15.587Z,31.20
2022-08-17T16:07:45.930Z,31.25
2022-08-17T16:10:18.793Z,31.17
2022-08-17T16:12:46.380Z,31.15
2022-08-17T16:15:16.257Z,31.27
2022-08-17T16:17:44.965Z,31.28
2022-08-17T16:20:20.148Z,31.24
2022-08-17T16:22:46.628Z,31.09
2022-08-17T16:25:17.688Z,31.23
2022-08-17T16:27:47.805Z,31.21
2022-08-17T16:30:17.848Z,31.15
2022-08-17T16:32:52.914Z,31.08
2022-08-17T16:35:24.749Z,30.92
2022-08-17T16:37:57.206Z,30.79
2022-08-17T16:40:27.684Z,30.67
2022-08-17T16:42:57.759Z,30.39
2022-08-17T16:45:28.552Z,30.17
2022-08-17T16:47:59.209Z,30.09
2022-08-17T16:50:27.960Z,29.95
2022-08-17T16:52:58.232Z,29.77
2022-08-17T16:55:27.083Z,29.58
2022-08-17T16:57:56.316Z,29.41
2022-08-17T17:00:25.041Z,29.28
2022-08-17T17:02:55.777Z,29.21
2022-08-17T17:05:28.924Z,29.07
2022-08-17T17:08:12.778Z,28.98
2022-08-17T17:10:43.043Z,28.83
2022-08-17T17:13:13.291Z,28.76
2022-08-17T17:15:43.559Z,28.68
2022-08-17T17:18:14.731Z,28.49
2022-08-17T17:20:50.815Z,28.33
2022-08-17T17:23:21.186Z,28.14
2022-08-17T17:25:51.532Z,28.09
2022-08-17T17:28:23.439Z,27.95
2022-08-17T17:31:02.887Z,27.78
2022-08-17T17:33:34.106Z,27.61
2022-08-17T17:36:08.314Z,27.40
2022-08-17T17:38:41.769Z,27.31
2022-08-17T17:41:12.030Z,27.14
2022-08-17T17:43:41.601Z,26.99
2022-08-17T17:46:28.436Z,26.80
2022-08-17T17:48:52.043Z,26.62
2022-08-17T17:52:06.566Z,26.43
2022-08-17T17:53:54.398Z,26.26
2022-08-17T17:56:43.994Z,26.13
2022-08-17T17:58:56.664Z,26.03
2022-08-17T18:01:42.137Z,25.88
2022-08-17T18:04:20.707Z,25.76
2022-08-17T18:06:47.170Z,25.59
2022-08-17T18:09:23.376Z,25.48
2022-08-17T18:11:59.427Z,25.46
2022-08-17T18:14:29.785Z,25.42
2022-08-17T18:16:59.993Z,25.26
2022-08-17T18:19:30.392Z,25.17
2022-08-17T18:22:14.556Z,24.96
2022-08-17T18:24:41.354Z,24.84
2022-08-17T18:27:23.647Z,24.80
2022-08-17T18:29:54.018Z,24.72
2022-08-17T18:32:27.165Z,24.57
2022-08-17T18:35:00.342Z,24.50
2022-08-17T18:37:33.815Z,24.36
2022-08-17T18:40:04.141Z,24.20
2022-08-17T18:42:33.078Z,24.10
2022-08-17T18:45:01.985Z,24.06
2022-08-17T18:47:30.768Z,23.99
2022-08-17T18:50:02.483Z,23.85
2022-08-17T18:52:32.859Z,23.76
2022-08-17T18:55:08.594Z,23.73
2022-08-17T18:57:40.021Z,23.68
2022-08-17T19:00:14.296Z,23.64
2022-08-17T19:02:51.014Z,23.50
2022-08-17T19:05:21.364Z,23.42
2022-08-17T19:07:50.359Z,23.34
2022-08-17T19:10:23.687Z,23.24
2022-08-17T19:12:54.108Z,23.23
2022-08-17T19:15:26.030Z,23.12
2022-08-17T19:18:13.343Z,23.07
2022-08-17T19:20:40.574Z,22.93
2022-08-17T19:23:19.010Z,22.87
2022-08-17T19:25:49.409Z,22.80
2022-08-17T19:28:22.630Z,22.70
2022-08-17T19:30:53.231Z,22.63
2022-08-17T19:33:25.056Z,22.57
2022-08-17T19:36:01.538Z,22.42
2022-08-17T19:38:33.009Z,22.34
2022-08-17T19:41:03.384Z,22.10
2022-08-17T19:43:47.652Z,22.22
2022-08-17T19:46:18.014Z,22.13
2022-08-17T19:49:04.672Z,22.25
2022-08-17T19:51:40.896Z,22.56
2022-08-17T19:54:18.284Z,22.28
2022-08-17T19:56:55.572Z,22.12
2022-08-17T19:59:45.353Z,22.23
2022-08-17T20:02:15.609Z,22.25
2022-08-17T20:04:45.800Z,22.20
2022-08-17T20:07:25.274Z,22.21
2022-08-17T20:10:01.805Z,22.05
2022-08-17T20:12:32.064Z,21.98
2022-08-17T20:15:08.191Z,21.98
2022-08-17T20:17:41.403Z,22.08
2022-08-17T20:20:19.342Z,21.68
2022-08-17T20:22:52.216Z,21.49
2022-08-17T20:25:18.358Z,21.45
2022-08-17T20:27:50.314Z,21.40
2022-08-17T20:30:26.557Z,21.31
2022-08-17T20:32:57.173Z,21.28
2022-08-17T20:35:36.400Z,21.30
2022-08-17T20:38:06.879Z,21.27
2022-08-17T20:40:37.132Z,21.23
2022-08-17T20:43:25.098Z,21.15
2022-08-17T20:45:55.348Z,21.07
2022-08-17T20:48:42.607Z,21.04
2022-08-17T20:51:00.658Z,20.97
2022-08-17T20:53:46.197Z,20.92
2022-08-17T20:56:32.996Z,20.86
2022-08-17T20:59:01.817Z,20.81
2022-08-17T21:01:39.611Z,20.82
2022-08-17T21:04:12.871Z,20.80
2022-08-17T21:06:43.097Z,20.78
2022-08-17T21:09:13.352Z,20.77
2022-08-17T21:12:00.000Z,20.72
2022-08-17T21:14:20.966Z,20.65
2022-08-17T21:16:55.374Z,20.61
2022-08-17T21:19:31.125Z,20.62
2022-08-17T21:22:02.484Z,20.57
2022-08-17T21:24:36.624Z,20.48
2022-08-17T21:27:23.533Z,20.38
2022-08-17T21:29:57.418Z,20.34
2022-08-17T21:32:30.734Z,20.38
2022-08-17T21:35:13.553Z,20.36
2022-08-17T21:37:44.388Z,20.22
2022-08-17T21:40:19.903Z,20.29
2022-08-17T21:42:58.054Z,20.31
2022-08-17T21:45:28.487Z,20.28
2022-08-17T21:48:07.869Z,20.24
2022-08-17T21:50:36.869Z,20.26
2022-08-17T21:53:07.129Z,20.28
2022-08-17T21:55:36.837Z,20.26
2022-08-17T21:58:13.649Z,20.25
2022-08-17T22:00:40.649Z,20.27
2022-08-17T22:03:11.332Z,20.26
2022-08-17T22:05:41.135Z,20.21
2022-08-17T22:08:16.997Z,20.19
2022-08-17T22:10:48.430Z,20.19
2022-08-17T22:13:24.809Z,20.12
2022-08-17T22:16:15.663Z,20.13
2022-08-17T22:18:40.315Z,20.06
2022-08-17T22:21:09.597Z,20.03
2022-08-17T22:23:57.929Z,20.02
2022-08-17T22:26:28.215Z,20.04
2022-08-17T22:28:58.234Z,20.05
2022-08-17T22:31:28.588Z,20.04
2022-08-17T22:34:01.838Z,20.02
2022-08-17T22:36:35.061Z,20.09
2022-08-17T22:39:11.432Z,20.09
2022-08-17T22:41:50.589Z,20.06
2022-08-17T22:44:24.136Z,20.04
2022-08-17T22:46:57.473Z,20.03
2022-08-17T22:49:29.339Z,20.00
2022-08-17T22:52:05.539Z,19.95
2022-08-17T22:54:52.044Z,19.92
2022-08-17T22:57:40.023Z,19.86
2022-08-17T23:00:10.381Z,19.84
2022-08-17T23:02:48.099Z,19.80
2022-08-17T23:05:15.807Z,19.76
2022-08-17T23:07:46.063Z,19.75
2022-08-17T23:10:16.212Z,19.71
2022-08-17T23:12:46.171Z,19.71
2022-08-17T23:15:16.391Z,19.69
2022-08-17T23:17:45.812Z,19.72
2022-08-17T23:20:15.904Z,19.66
2022-08-17T23:22:51.710Z,19.64
2022-08-17T23:25:17.680Z,19.64
2022-08-17T23:27:48.787Z,19.62
2022-08-17T23:30:17.963Z,19.63
2022-08-17T23:32:53.964Z,19.57
2022-08-17T23:35:18.781Z,19.54
2022-08-17T23:37:47.521Z,19.54
2022-08-17T23:40:16.651Z,19.47
2022-08-17T23:42:46.452Z,19.42
2022-08-17T23:45:16.535Z,19.34
2022-08-17T23:47:46.746Z,19.30
2022-08-17T23:50:15.948Z,19.29
2022-08-17T23:52:46.789Z,19.35
2022-08-17T23:55:15.627Z,19.34
2022-08-17T23:57:44.429Z,19.29
